sensor_id;sensor_type;location;lat;lon;timestamp;pressure;altitude;pressure_sealevel;temperature;humidity
64683;BME280;51107;47.652;19.016;2023-05-08T00:01:57;100348.66;;;10.81;87.87
64683;BME280;51107;47.652;19.016;2023-05-08T00:04:26;100347.69;;;10.82;87.33
64683;BME280;51107;47.652;19.016;2023-05-08T00:06:54;100348.94;;;10.68;87.57
64683;BME280;51107;47.652;19.016;2023-05-08T00:09:22;100345.09;;;10.72;87.88
64683;BME280;51107;47.652;19.016;2023-05-08T00:11:51;100349.22;;;10.55;88.15
64683;BME280;51107;47.652;19.016;2023-05-08T00:14:19;100335.19;;;10.46;89.63
64683;BME280;51107;47.652;19.016;2023-05-08T00:16:47;100345.75;;;10.35;89.80
64683;BME280;51107;47.652;19.016;2023-05-08T00:19:16;100355.50;;;10.43;89.46
64683;BME280;51107;47.652;19.016;2023-05-08T00:21:44;100356.41;;;10.32;89.68
64683;BME280;51107;47.652;19.016;2023-05-08T00:24:12;100346.66;;;10.24;89.95
64683;BME280;51107;47.652;19.016;2023-05-08T00:26:41;100353.94;;;10.30;87.96
64683;BME280;51107;47.652;19.016;2023-05-08T00:29:11;100355.97;;;10.27;87.77
64683;BME280;51107;47.652;19.016;2023-05-08T00:31:39;100356.63;;;10.19;89.12
64683;BME280;51107;47.652;19.016;2023-05-08T00:34:08;100360.75;;;10.22;88.00
64683;BME280;51107;47.652;19.016;2023-05-08T00:36:36;100346.91;;;10.11;89.59
64683;BME280;51107;47.652;19.016;2023-05-08T00:39:04;100353.34;;;10.07;89.50
64683;BME280;51107;47.652;19.016;2023-05-08T00:41:33;100353.34;;;10.07;90.37
64683;BME280;51107;47.652;19.016;2023-05-08T00:44:01;100353.59;;;10.04;89.23
64683;BME280;51107;47.652;19.016;2023-05-08T00:46:29;100347.84;;;10.00;89.85
64683;BME280;51107;47.652;19.016;2023-05-08T00:48:58;100354.12;;;9.98;90.12
64683;BME280;51107;47.652;19.016;2023-05-08T00:51:27;100360.00;;;10.00;90.22
64683;BME280;51107;47.652;19.016;2023-05-08T00:53:56;100358.41;;;10.09;89.16
64683;BME280;51107;47.652;19.016;2023-05-08T00:56:27;100359.63;;;10.05;88.80
64683;BME280;51107;47.652;19.016;2023-05-08T00:58:55;100370.19;;;10.03;88.49
64683;BME280;51107;47.652;19.016;2023-05-08T01:01:24;100364.91;;;9.83;88.89
64683;BME280;51107;47.652;19.016;2023-05-08T01:03:53;100373.09;;;9.79;89.63
64683;BME280;51107;47.652;19.016;2023-05-08T01:06:22;100370.75;;;9.76;88.14
64683;BME280;51107;47.652;19.016;2023-05-08T01:08:50;100361.44;;;9.73;87.38
64683;BME280;51107;47.652;19.016;2023-05-08T01:11:32;100380.59;;;9.72;87.83
64683;BME280;51107;47.652;19.016;2023-05-08T01:14:10;100379.03;;;9.60;88.75
64683;BME280;51107;47.652;19.016;2023-05-08T01:36:47;100389.72;;;9.35;88.95
64683;BME280;51107;47.652;19.016;2023-05-08T01:44:35;100384.19;;;9.29;91.55
64683;BME280;51107;47.652;19.016;2023-05-08T01:47:08;100389.19;;;8.99;92.75
64683;BME280;51107;47.652;19.016;2023-05-08T01:49:47;100386.22;;;9.04;92.39
64683;BME280;51107;47.652;19.016;2023-05-08T01:52:24;100381.75;;;8.95;93.13
64683;BME280;51107;47.652;19.016;2023-05-08T01:54:58;100383.28;;;8.97;92.69
64683;BME280;51107;47.652;19.016;2023-05-08T01:57:29;100391.94;;;8.87;94.07
64683;BME280;51107;47.652;19.016;2023-05-08T02:00:00;100387.81;;;8.84;94.72
64683;BME280;51107;47.652;19.016;2023-05-08T02:02:37;100391.59;;;8.91;94.56
64683;BME280;51107;47.652;19.016;2023-05-08T02:05:07;100396.00;;;8.79;94.57
64683;BME280;51107;47.652;19.016;2023-05-08T02:07:36;100399.00;;;8.96;93.67
64683;BME280;51107;47.652;19.016;2023-05-08T02:10:07;100398.50;;;9.02;92.87
64683;BME280;51107;47.652;19.016;2023-05-08T02:12:36;100398.41;;;9.04;92.13
64683;BME280;51107;47.652;19.016;2023-05-08T02:15:07;100399.28;;;9.14;89.99
64683;BME280;51107;47.652;19.016;2023-05-08T02:17:37;100391.94;;;9.19;89.90
64683;BME280;51107;47.652;19.016;2023-05-08T02:20:07;100398.16;;;9.28;87.17
64683;BME280;51107;47.652;19.016;2023-05-08T02:22:44;100393.59;;;9.41;86.07
64683;BME280;51107;47.652;19.016;2023-05-08T02:25:16;100401.12;;;9.44;85.95
64683;BME280;51107;47.652;19.016;2023-05-08T02:27:47;100405.19;;;9.37;88.66
64683;BME280;51107;47.652;19.016;2023-05-08T02:30:18;100414.28;;;9.10;90.21
64683;BME280;51107;47.652;19.016;2023-05-08T02:32:48;100410.84;;;8.89;92.00
64683;BME280;51107;47.652;19.016;2023-05-08T02:35:18;100399.69;;;8.98;92.66
64683;BME280;51107;47.652;19.016;2023-05-08T02:37:51;100407.00;;;9.04;92.82
64683;BME280;51107;47.652;19.016;2023-05-08T02:40:22;100412.34;;;9.03;92.92
64683;BME280;51107;47.652;19.016;2023-05-08T02:42:51;100410.69;;;9.01;93.87
64683;BME280;51107;47.652;19.016;2023-05-08T02:45:22;100416.41;;;8.84;95.18
64683;BME280;51107;47.652;19.016;2023-05-08T02:50:54;100411.50;;;9.02;94.28
64683;BME280;51107;47.652;19.016;2023-05-08T02:53:33;100403.66;;;9.13;93.78
64683;BME280;51107;47.652;19.016;2023-05-08T02:56:08;100416.34;;;9.28;94.11
64683;BME280;51107;47.652;19.016;2023-05-08T02:59:04;100413.25;;;9.34;93.25
64683;BME280;51107;47.652;19.016;2023-05-08T03:01:44;100412.72;;;9.40;91.75
64683;BME280;51107;47.652;19.016;2023-05-08T03:04:50;100415.03;;;9.55;88.56
64683;BME280;51107;47.652;19.016;2023-05-08T03:07:22;100421.62;;;9.59;88.21
64683;BME280;51107;47.652;19.016;2023-05-08T03:09:57;100416.59;;;9.67;84.16
64683;BME280;51107;47.652;19.016;2023-05-08T03:12:28;100414.28;;;9.74;89.07
64683;BME280;51107;47.652;19.016;2023-05-08T03:15:37;100417.72;;;9.53;90.82
64683;BME280;51107;47.652;19.016;2023-05-08T03:18:18;100422.28;;;8.97;93.93
64683;BME280;51107;47.652;19.016;2023-05-08T03:20:50;100411.41;;;9.46;92.02
64683;BME280;51107;47.652;19.016;2023-05-08T03:23:22;100418.88;;;9.39;91.24
64683;BME280;51107;47.652;19.016;2023-05-08T03:25:52;100406.06;;;9.47;91.34
64683;BME280;51107;47.652;19.016;2023-05-08T03:28:22;100414.84;;;9.46;90.76
64683;BME280;51107;47.652;19.016;2023-05-08T03:30:53;100420.97;;;9.45;91.57
64683;BME280;51107;47.652;19.016;2023-05-08T03:33:23;100418.38;;;9.45;92.34
64683;BME280;51107;47.652;19.016;2023-05-08T03:35:55;100425.25;;;9.46;92.24
64683;BME280;51107;47.652;19.016;2023-05-08T03:38:24;100427.06;;;9.56;91.42
64683;BME280;51107;47.652;19.016;2023-05-08T03:40:53;100413.75;;;9.70;90.77
64683;BME280;51107;47.652;19.016;2023-05-08T03:43:22;100422.66;;;9.77;88.71
64683;BME280;51107;47.652;19.016;2023-05-08T03:45:50;100428.44;;;9.81;88.10
64683;BME280;51107;47.652;19.016;2023-05-08T03:48:20;100433.97;;;9.88;87.04
64683;BME280;51107;47.652;19.016;2023-05-08T03:50:49;100432.84;;;9.90;82.20
64683;BME280;51107;47.652;19.016;2023-05-08T03:53:18;100422.22;;;9.93;82.80
64683;BME280;51107;47.652;19.016;2023-05-08T03:55:46;100424.53;;;9.96;83.67
64683;BME280;51107;47.652;19.016;2023-05-08T04:06:28;100443.87;;;10.03;79.77
64683;BME280;51107;47.652;19.016;2023-05-08T04:09:26;100435.44;;;10.11;83.10
64683;BME280;51107;47.652;19.016;2023-05-08T04:12:16;100456.44;;;10.19;80.34
64683;BME280;51107;47.652;19.016;2023-05-08T04:14:52;100450.37;;;10.19;86.02
64683;BME280;51107;47.652;19.016;2023-05-08T04:17:38;100453.47;;;10.03;88.12
64683;BME280;51107;47.652;19.016;2023-05-08T04:20:09;100457.97;;;10.01;87.66
64683;BME280;51107;47.652;19.016;2023-05-08T04:22:39;100457.19;;;10.10;87.61
64683;BME280;51107;47.652;19.016;2023-05-08T04:25:11;100463.50;;;10.08;86.90
64683;BME280;51107;47.652;19.016;2023-05-08T04:27:41;100462.84;;;10.15;85.66
64683;BME280;51107;47.652;19.016;2023-05-08T04:30:12;100467.66;;;10.20;84.01
64683;BME280;51107;47.652;19.016;2023-05-08T04:32:42;100475.06;;;10.25;77.62
64683;BME280;51107;47.652;19.016;2023-05-08T04:35:15;100475.06;;;10.25;75.22
64683;BME280;51107;47.652;19.016;2023-05-08T04:37:44;100481.37;;;10.22;76.43
64683;BME280;51107;47.652;19.016;2023-05-08T04:40:13;100478.94;;;10.30;74.92
64683;BME280;51107;47.652;19.016;2023-05-08T04:42:42;100493.25;;;10.36;73.31
64683;BME280;51107;47.652;19.016;2023-05-08T04:45:11;100500.94;;;10.38;71.71
64683;BME280;51107;47.652;19.016;2023-05-08T04:47:40;100497.84;;;10.32;73.00
64683;BME280;51107;47.652;19.016;2023-05-08T04:50:09;100507.91;;;10.37;71.70
64683;BME280;51107;47.652;19.016;2023-05-08T04:52:38;100506.88;;;10.28;68.90
64683;BME280;51107;47.652;19.016;2023-05-08T04:55:07;100499.06;;;10.28;70.00
64683;BME280;51107;47.652;19.016;2023-05-08T04:57:36;100513.34;;;10.34;71.54
64683;BME280;51107;47.652;19.016;2023-05-08T05:00:04;100517.22;;;10.40;70.10
64683;BME280;51107;47.652;19.016;2023-05-08T05:02:34;100507.66;;;10.40;70.48
64683;BME280;51107;47.652;19.016;2023-05-08T05:05:03;100507.38;;;10.43;70.35
64683;BME280;51107;47.652;19.016;2023-05-08T05:07:32;100515.78;;;10.47;71.10
64683;BME280;51107;47.652;19.016;2023-05-08T05:10:00;100512.91;;;10.50;70.43
64683;BME280;51107;47.652;19.016;2023-05-08T05:12:29;100511.09;;;10.50;69.77
64683;BME280;51107;47.652;19.016;2023-05-08T05:14:57;100512.09;;;10.59;71.56
64683;BME280;51107;47.652;19.016;2023-05-08T05:17:25;100527.72;;;10.59;71.11
64683;BME280;51107;47.652;19.016;2023-05-08T05:19:55;100526.25;;;10.66;70.04
64683;BME280;51107;47.652;19.016;2023-05-08T05:22:24;100526.56;;;10.73;71.19
64683;BME280;51107;47.652;19.016;2023-05-08T05:24:52;100522.19;;;10.83;71.39
64683;BME280;51107;47.652;19.016;2023-05-08T05:27:21;100527.38;;;10.74;68.23
64683;BME280;51107;47.652;19.016;2023-05-08T05:29:49;100529.31;;;10.81;68.95
64683;BME280;51107;47.652;19.016;2023-05-08T05:32:18;100529.06;;;10.84;68.20
64683;BME280;51107;47.652;19.016;2023-05-08T05:34:48;100523.28;;;10.91;70.41
64683;BME280;51107;47.652;19.016;2023-05-08T05:37:16;100533.19;;;10.97;69.67
64683;BME280;51107;47.652;19.016;2023-05-08T05:39:45;100532.94;;;11.10;70.87
64683;BME280;51107;47.652;19.016;2023-05-08T05:42:14;100530.88;;;11.03;65.32
64683;BME280;51107;47.652;19.016;2023-05-08T05:44:42;100540.38;;;11.14;68.98
64683;BME280;51107;47.652;19.016;2023-05-08T05:47:11;100532.53;;;11.14;65.66
64683;BME280;51107;47.652;19.016;2023-05-08T05:49:40;100537.75;;;11.14;65.33
64683;BME280;51107;47.652;19.016;2023-05-08T05:52:14;100538.00;;;11.11;68.13
64683;BME280;51107;47.652;19.016;2023-05-08T05:54:43;100541.47;;;11.21;65.54
64683;BME280;51107;47.652;19.016;2023-05-08T05:57:11;100539.25;;;11.27;64.81
64683;BME280;51107;47.652;19.016;2023-05-08T05:59:41;100549.16;;;11.23;64.83
64683;BME280;51107;47.652;19.016;2023-05-08T06:02:11;100543.66;;;11.16;64.20
64683;BME280;51107;47.652;19.016;2023-05-08T06:04:46;100542.56;;;11.29;65.02
64683;BME280;51107;47.652;19.016;2023-05-08T06:07:16;100553.00;;;11.38;65.63
64683;BME280;51107;47.652;19.016;2023-05-08T06:09:45;100558.22;;;11.38;65.43
64683;BME280;51107;47.652;19.016;2023-05-08T06:12:14;100555.59;;;11.38;64.35
64683;BME280;51107;47.652;19.016;2023-05-08T06:14:42;100543.94;;;11.43;63.24
64683;BME280;51107;47.652;19.016;2023-05-08T06:17:10;100551.47;;;11.55;64.89
64683;BME280;51107;47.652;19.016;2023-05-08T06:19:39;100550.66;;;11.55;62.10
64683;BME280;51107;47.652;19.016;2023-05-08T06:22:08;100541.19;;;11.64;63.22
64683;BME280;51107;47.652;19.016;2023-05-08T06:24:36;100545.31;;;11.56;63.80
64683;BME280;51107;47.652;19.016;2023-05-08T06:27:04;100553.13;;;11.76;65.42
64683;BME280;51107;47.652;19.016;2023-05-08T06:29:32;100544.59;;;11.84;62.63
64683;BME280;51107;47.652;19.016;2023-05-08T06:32:01;100553.25;;;11.75;62.60
64683;BME280;51107;47.652;19.016;2023-05-08T06:34:29;100550.25;;;11.99;63.59
64683;BME280;51107;47.652;19.016;2023-05-08T06:36:58;100551.56;;;12.22;63.10
64683;BME280;51107;47.652;19.016;2023-05-08T06:39:26;100549.81;;;12.51;59.69
64683;BME280;51107;47.652;19.016;2023-05-08T06:41:55;100546.75;;;12.55;59.56
64683;BME280;51107;47.652;19.016;2023-05-08T06:44:23;100558.09;;;12.74;59.92
64683;BME280;51107;47.652;19.016;2023-05-08T06:46:52;100546.38;;;12.78;57.48
64683;BME280;51107;47.652;19.016;2023-05-08T06:49:20;100556.41;;;12.83;59.51
64683;BME280;51107;47.652;19.016;2023-05-08T06:51:50;100560.72;;;13.02;58.34
64683;BME280;51107;47.652;19.016;2023-05-08T06:54:18;100562.16;;;13.14;60.56
64683;BME280;51107;47.652;19.016;2023-05-08T06:56:46;100562.69;;;13.36;60.01
64683;BME280;51107;47.652;19.016;2023-05-08T06:59:15;100559.78;;;13.57;58.46
64683;BME280;51107;47.652;19.016;2023-05-08T07:01:43;100563.13;;;13.67;56.83
64683;BME280;51107;47.652;19.016;2023-05-08T07:04:12;100560.19;;;13.88;56.13
64683;BME280;51107;47.652;19.016;2023-05-08T07:06:41;100552.53;;;13.95;53.11
64683;BME280;51107;47.652;19.016;2023-05-08T07:09:09;100558.34;;;14.07;55.15
64683;BME280;51107;47.652;19.016;2023-05-08T07:11:40;100567.59;;;14.19;54.92
64683;BME280;51107;47.652;19.016;2023-05-08T07:14:08;100564.47;;;14.50;54.54
64683;BME280;51107;47.652;19.016;2023-05-08T07:16:36;100570.03;;;14.73;53.00
64683;BME280;51107;47.652;19.016;2023-05-08T07:19:05;100564.22;;;14.96;52.93
64683;BME280;51107;47.652;19.016;2023-05-08T07:21:33;100574.59;;;15.22;51.22
64683;BME280;51107;47.652;19.016;2023-05-08T07:24:02;100570.50;;;15.20;50.50
64683;BME280;51107;47.652;19.016;2023-05-08T07:26:31;100567.41;;;15.57;50.83
64683;BME280;51107;47.652;19.016;2023-05-08T07:29:00;100568.75;;;15.86;49.60
64683;BME280;51107;47.652;19.016;2023-05-08T07:31:28;100565.75;;;16.06;48.73
64683;BME280;51107;47.652;19.016;2023-05-08T07:33:58;100558.94;;;16.36;47.44
64683;BME280;51107;47.652;19.016;2023-05-08T07:36:27;100571.28;;;16.36;46.23
64683;BME280;51107;47.652;19.016;2023-05-08T07:38:55;100569.22;;;16.62;49.69
64683;BME280;51107;47.652;19.016;2023-05-08T07:41:24;100565.31;;;16.50;48.19
64683;BME280;51107;47.652;19.016;2023-05-08T07:43:54;100572.63;;;16.79;48.38
64683;BME280;51107;47.652;19.016;2023-05-08T07:46:22;100563.69;;;17.20;46.25
64683;BME280;51107;47.652;19.016;2023-05-08T07:48:51;100566.69;;;17.63;45.44
64683;BME280;51107;47.652;19.016;2023-05-08T07:51:19;100569.56;;;17.92;44.31
64683;BME280;51107;47.652;19.016;2023-05-08T07:53:47;100566.50;;;18.18;41.87
64683;BME280;51107;47.652;19.016;2023-05-08T07:56:18;100571.69;;;17.96;44.74
64683;BME280;51107;47.652;19.016;2023-05-08T07:58:46;100563.63;;;18.28;43.41
64683;BME280;51107;47.652;19.016;2023-05-08T08:01:15;100565.31;;;18.65;43.22
64683;BME280;51107;47.652;19.016;2023-05-08T08:03:45;100570.78;;;18.64;43.65
64683;BME280;51107;47.652;19.016;2023-05-08T08:06:14;100562.78;;;18.57;41.01
64683;BME280;51107;47.652;19.016;2023-05-08T08:08:42;100566.78;;;18.68;44.08
64683;BME280;51107;47.652;19.016;2023-05-08T08:11:10;100566.88;;;18.75;43.06
64683;BME280;51107;47.652;19.016;2023-05-08T08:13:39;100573.31;;;19.24;42.89
64683;BME280;51107;47.652;19.016;2023-05-08T08:16:07;100575.56;;;19.48;44.00
64683;BME280;51107;47.652;19.016;2023-05-08T08:18:36;100573.44;;;19.37;40.23
64683;BME280;51107;47.652;19.016;2023-05-08T08:21:06;100574.75;;;19.26;41.84
64683;BME280;51107;47.652;19.016;2023-05-08T08:23:34;100576.13;;;19.87;41.16
64683;BME280;51107;47.652;19.016;2023-05-08T08:26:03;100575.78;;;19.97;39.96
64683;BME280;51107;47.652;19.016;2023-05-08T08:28:32;100574.12;;;19.96;39.09
64683;BME280;51107;47.652;19.016;2023-05-08T08:31:00;100564.84;;;20.07;38.09
64683;BME280;51107;47.652;19.016;2023-05-08T08:33:29;100569.25;;;20.21;38.41
64683;BME280;51107;47.652;19.016;2023-05-08T08:35:58;100568.69;;;20.32;38.49
64683;BME280;51107;47.652;19.016;2023-05-08T08:38:26;100570.34;;;19.77;40.63
64683;BME280;51107;47.652;19.016;2023-05-08T08:40:55;100562.06;;;20.15;40.68
64683;BME280;51107;47.652;19.016;2023-05-08T08:43:23;100565.97;;;20.19;38.74
64683;BME280;51107;47.652;19.016;2023-05-08T08:45:52;100560.66;;;19.84;38.15
64683;BME280;51107;47.652;19.016;2023-05-08T08:48:27;100569.75;;;20.45;40.20
64683;BME280;51107;47.652;19.016;2023-05-08T08:50:58;100566.88;;;20.75;37.69
64683;BME280;51107;47.652;19.016;2023-05-08T08:53:34;100565.91;;;20.96;37.63
64683;BME280;51107;47.652;19.016;2023-05-08T08:56:05;100564.72;;;20.98;37.70
64683;BME280;51107;47.652;19.016;2023-05-08T08:58:37;100562.72;;;21.27;36.51
64683;BME280;51107;47.652;19.016;2023-05-08T09:01:08;100570.41;;;21.09;38.07
64683;BME280;51107;47.652;19.016;2023-05-08T09:03:42;100567.34;;;20.50;37.11
64683;BME280;51107;47.652;19.016;2023-05-08T09:06:12;100561.22;;;20.49;38.33
64683;BME280;51107;47.652;19.016;2023-05-08T09:08:41;100567.72;;;20.82;36.40
64683;BME280;51107;47.652;19.016;2023-05-08T09:11:10;100565.78;;;21.44;36.93
64683;BME280;51107;47.652;19.016;2023-05-08T09:13:39;100565.72;;;20.97;35.02
64683;BME280;51107;47.652;19.016;2023-05-08T09:16:07;100558.97;;;20.95;35.30
64683;BME280;51107;47.652;19.016;2023-05-08T09:18:37;100559.84;;;20.60;36.34
64683;BME280;51107;47.652;19.016;2023-05-08T09:21:05;100557.19;;;21.09;36.31
64683;BME280;51107;47.652;19.016;2023-05-08T09:23:35;100549.75;;;20.70;36.72
64683;BME280;51107;47.652;19.016;2023-05-08T09:26:04;100544.72;;;20.41;38.27
64683;BME280;51107;47.652;19.016;2023-05-08T09:28:32;100547.69;;;21.54;36.62
64683;BME280;51107;47.652;19.016;2023-05-08T09:31:00;100548.25;;;21.50;37.63
64683;BME280;51107;47.652;19.016;2023-05-08T09:33:29;100543.97;;;21.29;37.42
64683;BME280;51107;47.652;19.016;2023-05-08T09:35:57;100550.50;;;21.33;37.05
64683;BME280;51107;47.652;19.016;2023-05-08T09:38:33;100550.91;;;21.97;39.55
64683;BME280;51107;47.652;19.016;2023-05-08T09:43:38;100542.78;;;21.58;34.30
64683;BME280;51107;47.652;19.016;2023-05-08T09:46:27;100540.75;;;21.60;34.27
64683;BME280;51107;47.652;19.016;2023-05-08T09:48:57;100547.06;;;21.59;34.78
64683;BME280;51107;47.652;19.016;2023-05-08T09:51:28;100534.78;;;21.11;34.39
64683;BME280;51107;47.652;19.016;2023-05-08T09:53:59;100531.97;;;21.60;35.58
64683;BME280;51107;47.652;19.016;2023-05-08T09:59:01;100536.44;;;21.86;34.88
64683;BME280;51107;47.652;19.016;2023-05-08T10:01:32;100539.72;;;21.68;34.03
64683;BME280;51107;47.652;19.016;2023-05-08T10:04:02;100538.91;;;21.67;32.98
64683;BME280;51107;47.652;19.016;2023-05-08T10:06:31;100539.03;;;20.99;35.16
64683;BME280;51107;47.652;19.016;2023-05-08T10:09:09;100529.69;;;21.10;34.51
64683;BME280;51107;47.652;19.016;2023-05-08T10:11:48;100532.37;;;21.36;36.48
64683;BME280;51107;47.652;19.016;2023-05-08T10:14:23;100527.28;;;21.28;36.73
64683;BME280;51107;47.652;19.016;2023-05-08T10:16:53;100523.16;;;21.86;36.54
64683;BME280;51107;47.652;19.016;2023-05-08T10:19:23;100512.38;;;21.81;34.64
64683;BME280;51107;47.652;19.016;2023-05-08T10:21:53;100517.25;;;22.04;34.12
64683;BME280;51107;47.652;19.016;2023-05-08T10:24:28;100516.84;;;22.00;34.10
64683;BME280;51107;47.652;19.016;2023-05-08T10:27:19;100520.06;;;22.09;35.25
64683;BME280;51107;47.652;19.016;2023-05-08T10:29:59;100505.44;;;21.80;33.40
64683;BME280;51107;47.652;19.016;2023-05-08T10:32:33;100512.97;;;21.96;32.79
64683;BME280;51107;47.652;19.016;2023-05-08T10:35:07;100505.16;;;22.15;33.56
64683;BME280;51107;47.652;19.016;2023-05-08T10:37:37;100504.56;;;22.13;31.05
64683;BME280;51107;47.652;19.016;2023-05-08T10:40:07;100513.94;;;22.09;30.27
64683;BME280;51107;47.652;19.016;2023-05-08T10:42:37;100503.84;;;21.59;30.14
64683;BME280;51107;47.652;19.016;2023-05-08T10:45:07;100501.66;;;20.67;32.77
64683;BME280;51107;47.652;19.016;2023-05-08T10:48:02;100501.91;;;20.79;33.66
64683;BME280;51107;47.652;19.016;2023-05-08T10:53:38;100493.78;;;20.87;32.81
64683;BME280;51107;47.652;19.016;2023-05-08T10:56:07;100504.41;;;21.14;33.02
64683;BME280;51107;47.652;19.016;2023-05-08T10:58:36;100502.78;;;20.99;33.75
64683;BME280;51107;47.652;19.016;2023-05-08T11:01:10;100489.06;;;20.82;36.30
64683;BME280;51107;47.652;19.016;2023-05-08T11:03:44;100488.72;;;21.12;36.15
64683;BME280;51107;47.652;19.016;2023-05-08T11:06:13;100488.31;;;21.22;34.94
64683;BME280;51107;47.652;19.016;2023-05-08T11:08:50;100496.06;;;21.30;37.01
64683;BME280;51107;47.652;19.016;2023-05-08T11:11:25;100494.63;;;20.94;33.79
64683;BME280;51107;47.652;19.016;2023-05-08T11:19:28;100480.16;;;20.90;34.97
64683;BME280;51107;47.652;19.016;2023-05-08T11:22:13;100492.72;;;20.68;34.32
64683;BME280;51107;47.652;19.016;2023-05-08T11:25:05;100489.75;;;20.36;33.10
64683;BME280;51107;47.652;19.016;2023-05-08T11:36:33;100483.41;;;20.30;33.88
64683;BME280;51107;47.652;19.016;2023-05-08T11:38:42;100489.06;;;20.27;33.56
64683;BME280;51107;47.652;19.016;2023-05-08T11:41:21;100480.31;;;20.20;34.44
64683;BME280;51107;47.652;19.016;2023-05-08T11:49:14;100491.19;;;19.68;35.99
64683;BME280;51107;47.652;19.016;2023-05-08T11:51:54;100489.03;;;19.57;36.32
64683;BME280;51107;47.652;19.016;2023-05-08T11:54:28;100486.09;;;19.74;34.19
64683;BME280;51107;47.652;19.016;2023-05-08T11:56:57;100485.69;;;19.70;33.17
64683;BME280;51107;47.652;19.016;2023-05-08T11:59:27;100493.47;;;19.50;35.48
64683;BME280;51107;47.652;19.016;2023-05-08T12:01:55;100496.38;;;19.33;36.37
64683;BME280;51107;47.652;19.016;2023-05-08T12:04:45;100500.00;;;19.26;34.33
64683;BME280;51107;47.652;19.016;2023-05-08T12:07:14;100484.69;;;19.21;34.75
64683;BME280;51107;47.652;19.016;2023-05-08T12:09:45;100488.59;;;19.25;35.69
64683;BME280;51107;47.652;19.016;2023-05-08T12:12:13;100481.78;;;19.16;35.38
64683;BME280;51107;47.652;19.016;2023-05-08T12:14:41;100481.37;;;19.12;35.76
64683;BME280;51107;47.652;19.016;2023-05-08T12:17:10;100482.44;;;19.18;35.29
64683;BME280;51107;47.652;19.016;2023-05-08T12:19:38;100484.87;;;19.20;35.48
64683;BME280;51107;47.652;19.016;2023-05-08T12:22:07;100484.22;;;19.11;35.46
64683;BME280;51107;47.652;19.016;2023-05-08T12:24:37;100489.31;;;19.12;34.63
64683;BME280;51107;47.652;19.016;2023-05-08T12:27:06;100484.19;;;18.89;34.24
64683;BME280;51107;47.652;19.016;2023-05-08T12:29:35;100478.19;;;18.95;34.27
64683;BME280;51107;47.652;19.016;2023-05-08T12:32:05;100481.56;;;18.89;32.83
64683;BME280;51107;47.652;19.016;2023-05-08T12:34:33;100483.81;;;18.92;34.39
64683;BME280;51107;47.652;19.016;2023-05-08T12:37:03;100476.97;;;18.98;34.83
64683;BME280;51107;47.652;19.016;2023-05-08T12:39:35;100482.03;;;18.78;33.40
64683;BME280;51107;47.652;19.016;2023-05-08T12:42:04;100480.91;;;18.87;34.75
64683;BME280;51107;47.652;19.016;2023-05-08T12:44:33;100475.19;;;18.83;32.25
64683;BME280;51107;47.652;19.016;2023-05-08T12:47:03;100482.19;;;18.91;33.72
64683;BME280;51107;47.652;19.016;2023-05-08T12:49:32;100482.28;;;18.83;34.95
64683;BME280;51107;47.652;19.016;2023-05-08T12:52:04;100484.28;;;18.81;33.48
64683;BME280;51107;47.652;19.016;2023-05-08T12:54:38;100481.19;;;18.77;34.28
64683;BME280;51107;47.652;19.016;2023-05-08T12:57:12;100485.34;;;18.87;36.12
64683;BME280;51107;47.652;19.016;2023-05-08T12:59:41;100477.56;;;18.78;33.26
64683;BME280;51107;47.652;19.016;2023-05-08T13:02:17;100481.75;;;18.88;32.45
64683;BME280;51107;47.652;19.016;2023-05-08T13:04:46;100474.25;;;19.13;31.93
64683;BME280;51107;47.652;19.016;2023-05-08T13:07:15;100475.47;;;18.89;35.42
64683;BME280;51107;47.652;19.016;2023-05-08T13:10:00;100484.19;;;18.89;33.70
64683;BME280;51107;47.652;19.016;2023-05-08T13:12:33;100484.66;;;18.93;33.41
64683;BME280;51107;47.652;19.016;2023-05-08T13:15:01;100487.66;;;18.90;34.34
64683;BME280;51107;47.652;19.016;2023-05-08T13:17:32;100476.16;;;18.97;32.89
64683;BME280;51107;47.652;19.016;2023-05-08T13:20:00;100470.63;;;18.92;34.11
64683;BME280;51107;47.652;19.016;2023-05-08T13:22:36;100473.91;;;18.94;33.44
64683;BME280;51107;47.652;19.016;2023-05-08T13:25:08;100474.63;;;18.88;33.68
64683;BME280;51107;47.652;19.016;2023-05-08T13:27:36;100479.66;;;18.83;34.49
64683;BME280;51107;47.652;19.016;2023-05-08T13:30:05;100470.00;;;18.90;33.74
64683;BME280;51107;47.652;19.016;2023-05-08T13:32:34;100469.72;;;18.85;32.79
64683;BME280;51107;47.652;19.016;2023-05-08T13:35:03;100462.19;;;18.82;33.96
64683;BME280;51107;47.652;19.016;2023-05-08T13:37:31;100470.47;;;18.79;34.54
64683;BME280;51107;47.652;19.016;2023-05-08T13:40:00;100459.44;;;18.90;35.17
64683;BME280;51107;47.652;19.016;2023-05-08T13:42:28;100464.09;;;19.10;35.85
64683;BME280;51107;47.652;19.016;2023-05-08T13:44:57;100468.88;;;18.99;35.99
64683;BME280;51107;47.652;19.016;2023-05-08T13:47:26;100468.72;;;18.86;35.75
64683;BME280;51107;47.652;19.016;2023-05-08T13:49:55;100470.47;;;18.79;36.04
64683;BME280;51107;47.652;19.016;2023-05-08T13:52:23;100465.66;;;18.67;35.70
64683;BME280;51107;47.652;19.016;2023-05-08T13:54:52;100464.84;;;18.67;36.56
64683;BME280;51107;47.652;19.016;2023-05-08T13:57:21;100461.91;;;18.77;36.33
64683;BME280;51107;47.652;19.016;2023-05-08T13:59:49;100463.56;;;18.78;36.40
64683;BME280;51107;47.652;19.016;2023-05-08T14:02:17;100455.81;;;18.76;36.63
64683;BME280;51107;47.652;19.016;2023-05-08T14:04:46;100465.47;;;18.69;36.83
64683;BME280;51107;47.652;19.016;2023-05-08T14:07:14;100465.00;;;18.80;37.16